Time;durP1;ratioP1;P1;durP2;ratioP2;P2;SDS_P1;SDS_P2;PMS_P1;PMS_P2;Temp;Humidity;BMP_temperature;BMP_pressure;BME280_temperature;BME280_humidity;BME280_pressure;Samples;Min_cycle;Max_cycle;Signal;HPM_P1;HPM_P2
2023/07/24 00:02:05;;;;;;;3.90;3.50;;;25.60;48.00;;;;;;222125;1261;22604;-42
2023/07/24 00:07:09;;;;;;;4.00;3.50;;;25.60;48.10;;;;;;222075;1269;22515;-45
2023/07/24 00:12:13;;;;;;;3.80;3.30;;;25.60;48.30;;;;;;222078;1264;23944;-42
2023/07/24 00:17:18;;;;;;;5.10;3.90;;;25.50;48.40;;;;;;221888;1257;22504;-43
2023/07/24 00:22:22;;;;;;;4.50;3.90;;;25.60;48.70;;;;;;222303;1257;22526;-41
2023/07/24 00:27:27;;;;;;;3.40;3.10;;;25.50;49.20;;;;;;222005;1257;24217;-42
2023/07/24 00:32:31;;;;;;;3.60;3.30;;;25.50;48.90;;;;;;222246;1264;24255;-42
2023/07/24 00:37:37;;;;;;;4.40;3.10;;;25.50;49.10;;;;;;222018;1269;24308;-41
2023/07/24 00:42:45;;;;;;;4.00;3.60;;;25.50;49.20;;;;;;222261;1262;22495;-43
2023/07/24 00:47:53;;;;;;;3.80;3.30;;;25.50;49.20;;;;;;222234;1262;24221;-42
2023/07/24 00:52:57;;;;;;;3.90;3.50;;;25.50;49.30;;;;;;222167;1259;22791;-45
2023/07/24 00:58:03;;;;;;;4.60;3.70;;;25.40;49.40;;;;;;222274;1254;22517;-41
2023/07/24 01:03:08;;;;;;;4.30;3.90;;;25.40;49.60;;;;;;222097;1256;22881;-43
2023/07/24 01:08:13;;;;;;;4.20;3.80;;;25.50;49.90;;;;;;221976;1255;22509;-46
2023/07/24 01:13:24;;;;;;;3.70;3.40;;;25.40;49.80;;;;;;222060;1256;22524;-42
2023/07/24 01:18:29;;;;;;;;;;;25.50;50.30;;;;;;221936;1263;22614;-42
2023/07/24 01:23:50;;;;;;;4.00;3.30;;;25.40;50.00;;;;;;222272;1268;24279;-42
2023/07/24 01:28:55;;;;;;;4.00;3.60;;;25.40;50.10;;;;;;222003;1268;22521;-43
2023/07/24 01:33:59;;;;;;;4.00;3.70;;;25.40;50.10;;;;;;221915;1263;22508;-43
2023/07/24 01:39:04;;;;;;;3.50;3.20;;;25.40;50.10;;;;;;222007;1269;22587;-41
2023/07/24 01:44:08;;;;;;;3.50;3.20;;;25.40;50.10;;;;;;221799;1257;22771;-42
2023/07/24 01:49:12;;;;;;;3.80;3.50;;;25.40;50.10;;;;;;221855;1269;22538;-41
2023/07/24 01:54:20;;;;;;;3.60;3.30;;;25.40;50.00;;;;;;221971;1257;22698;-46
2023/07/24 01:59:25;;;;;;;3.90;3.50;;;25.30;49.90;;;;;;221990;1256;22612;-44
2023/07/24 02:04:29;;;;;;;4.20;3.80;;;25.30;49.90;;;;;;222061;1259;22522;-42
2023/07/24 02:09:34;;;;;;;3.90;3.60;;;25.30;49.80;;;;;;222058;1260;24174;-43
2023/07/24 02:14:38;;;;;;;4.20;3.80;;;25.30;49.80;;;;;;221945;1269;259169;-42
2023/07/24 02:19:43;;;;;;;4.10;3.80;;;25.30;49.90;;;;;;222129;1259;24317;-42
2023/07/24 02:24:47;;;;;;;5.50;3.50;;;25.30;49.80;;;;;;222145;1263;22525;-44
2023/07/24 02:29:54;;;;;;;4.40;3.80;;;25.30;49.80;;;;;;222190;1269;25393;-43
2023/07/24 02:34:58;;;;;;;4.10;3.70;;;25.30;49.80;;;;;;222081;1269;22793;-43
2023/07/24 02:40:03;;;;;;;4.00;3.70;;;25.20;49.80;;;;;;222041;1263;22514;-44
2023/07/24 02:45:10;;;;;;;4.70;3.90;;;25.30;50.20;;;;;;222127;1269;22648;-42
2023/07/24 02:50:15;;;;;;;7.00;4.30;;;25.30;50.20;;;;;;222152;1269;22628;-42
2023/07/24 02:55:19;;;;;;;4.00;3.60;;;25.30;49.90;;;;;;222039;1256;24203;-42
2023/07/24 03:00:23;;;;;;;4.20;3.40;;;25.20;49.80;;;;;;221972;1254;24095;-41
2023/07/24 03:05:28;;;;;;;4.80;3.70;;;25.20;49.90;;;;;;222049;1263;22606;-43
2023/07/24 03:10:32;;;;;;;4.30;3.40;;;25.20;50.30;;;;;;222144;1266;22611;-41
2023/07/24 03:15:36;;;;;;;4.50;3.90;;;25.20;50.00;;;;;;221823;1269;22512;-41
2023/07/24 03:20:41;;;;;;;4.60;3.60;;;25.20;50.00;;;;;;221901;1261;24852;-44
2023/07/24 03:25:45;;;;;;;5.00;4.20;;;25.10;49.90;;;;;;222014;1269;22765;-41
2023/07/24 03:30:49;;;;;;;7.10;4.30;;;25.20;49.90;;;;;;221864;1264;22627;-42
2023/07/24 03:35:53;;;;;;;3.80;3.30;;;25.20;50.10;;;;;;221974;1269;22514;-41
2023/07/24 03:40:57;;;;;;;6.40;4.30;;;25.20;49.80;;;;;;222028;1263;22560;-41
2023/07/24 03:46:03;;;;;;;4.30;3.80;;;25.10;49.80;;;;;;221874;1266;24303;-43
2023/07/24 03:51:08;;;;;;;5.60;4.10;;;25.20;49.80;;;;;;222232;1266;24271;-40
2023/07/24 03:56:12;;;;;;;4.20;3.40;;;25.10;49.80;;;;;;222115;1263;22810;-44
2023/07/24 04:01:17;;;;;;;4.70;3.60;;;25.10;49.90;;;;;;222089;1269;22521;-41
2023/07/24 04:06:21;;;;;;;4.10;3.70;;;25.10;49.90;;;;;;222180;1266;22507;-42
2023/07/24 04:11:25;;;;;;;3.90;3.60;;;25.10;50.50;;;;;;222004;1266;22734;-41
2023/07/24 04:16:31;;;;;;;4.80;3.20;;;25.20;50.70;;;;;;222041;1256;22803;-42
2023/07/24 04:21:35;;;;;;;5.10;3.80;;;25.20;50.20;;;;;;221908;1267;22585;-42
2023/07/24 04:26:39;;;;;;;3.70;3.40;;;25.10;50.30;;;;;;222105;1269;22508;-42
2023/07/24 04:31:43;;;;;;;4.20;3.80;;;25.20;50.40;;;;;;221892;1270;24762;-43
2023/07/24 04:36:49;;;;;;;4.80;3.10;;;25.20;50.60;;;;;;221877;1269;22521;-45
2023/07/24 04:41:53;;;;;;;4.60;4.00;;;25.10;51.10;;;;;;222257;1269;24766;-43
2023/07/24 04:46:58;;;;;;;6.90;4.10;;;25.10;50.70;;;;;;221993;1269;22714;-44
2023/07/24 04:52:02;;;;;;;4.60;3.50;;;25.20;51.10;;;;;;222010;1259;22513;-42
2023/07/24 04:57:07;;;;;;;7.00;3.80;;;25.20;51.60;;;;;;222203;1269;25437;-41
2023/07/24 05:02:11;;;;;;;4.00;3.50;;;25.20;51.30;;;;;;221996;1266;23145;-45
2023/07/24 05:07:15;;;;;;;3.90;3.60;;;25.10;51.30;;;;;;222174;1269;22584;-43
2023/07/24 05:12:19;;;;;;;4.60;4.10;;;25.20;51.60;;;;;;222251;1260;22508;-41
2023/07/24 05:17:23;;;;;;;4.30;3.80;;;25.10;51.60;;;;;;222014;1269;24722;-41
2023/07/24 05:22:27;;;;;;;5.40;3.50;;;25.10;51.80;;;;;;222183;1264;22510;-40
2023/07/24 05:27:32;;;;;;;4.20;3.90;;;25.20;52.20;;;;;;220808;1276;24200;-42
2023/07/24 05:32:36;;;;;;;5.20;4.40;;;25.20;51.80;;;;;;220741;1276;24360;-42
2023/07/24 05:37:40;;;;;;;5.50;4.70;;;25.20;51.80;;;;;;221044;1270;22518;-44
2023/07/24 05:42:47;;;;;;;4.80;4.30;;;25.20;51.90;;;;;;220971;1269;22519;-41
2023/07/24 05:47:52;;;;;;;4.70;4.30;;;25.20;52.10;;;;;;222419;1266;22627;-42
2023/07/24 05:52:56;;;;;;;4.60;4.00;;;25.20;52.10;;;;;;222140;1269;22521;-41
2023/07/24 05:58:00;;;;;;;4.80;4.30;;;25.20;52.40;;;;;;222179;1266;23910;-43
2023/07/24 06:03:04;;;;;;;5.40;4.30;;;25.20;52.00;;;;;;222003;1263;22512;-41
2023/07/24 06:08:11;;;;;;;5.10;4.20;;;25.20;52.10;;;;;;221819;1270;24263;-43
2023/07/24 06:13:17;;;;;;;4.50;4.10;;;25.20;52.10;;;;;;222095;1269;24221;-42
2023/07/24 06:18:21;;;;;;;5.00;4.60;;;25.20;52.20;;;;;;221832;1269;22523;-44
2023/07/24 06:23:25;;;;;;;4.30;3.90;;;25.30;52.60;;;;;;221889;1269;22644;-41
2023/07/24 06:28:29;;;;;;;4.50;3.80;;;25.30;52.60;;;;;;221882;1267;22508;-42
2023/07/24 06:33:33;;;;;;;4.30;4.00;;;25.30;52.10;;;;;;222063;1263;24247;-41
2023/07/24 06:38:38;;;;;;;5.70;4.00;;;25.30;52.20;;;;;;222369;1264;25923;-46
2023/07/24 06:43:42;;;;;;;4.50;4.10;;;25.20;52.60;;;;;;222331;1266;22771;-45
2023/07/24 06:48:47;;;;;;;4.30;4.00;;;25.40;52.30;;;;;;221924;1264;22769;-49
2023/07/24 06:53:51;;;;;;;3.90;3.60;;;25.40;51.70;;;;;;222008;1260;23911;-47
2023/07/24 06:58:55;;;;;;;4.10;3.40;;;25.40;51.60;;;;;;221900;1269;22638;-46
2023/07/24 07:03:59;;;;;;;6.30;4.30;;;25.50;51.50;;;;;;221822;1267;24539;-47
2023/07/24 07:09:04;;;;;;;4.10;3.80;;;25.50;52.10;;;;;;222211;1263;24661;-47
2023/07/24 07:14:09;;;;;;;6.60;4.10;;;25.60;52.10;;;;;;222069;1269;22922;-46
2023/07/24 07:19:13;;;;;;;10.40;5.30;;;25.60;52.60;;;;;;222328;1267;22729;-46
2023/07/24 07:24:17;;;;;;;8.10;6.40;;;25.70;52.80;;;;;;221669;1269;24168;-45
2023/07/24 07:29:21;;;;;;;6.00;5.00;;;25.70;53.60;;;;;;222017;1263;25882;-46
2023/07/24 07:34:27;;;;;;;5.70;5.10;;;25.70;53.40;;;;;;222195;1264;22772;-46
2023/07/24 07:39:32;;;;;;;5.60;5.10;;;25.80;52.60;;;;;;221990;1258;25626;-48
2023/07/24 07:44:36;;;;;;;6.60;5.20;;;25.80;53.10;;;;;;222055;1266;25367;-46
2023/07/24 07:49:41;;;;;;;6.20;5.40;;;25.80;52.90;;;;;;222162;1269;24307;-46
2023/07/24 07:54:49;;;;;;;6.70;5.40;;;25.70;52.50;;;;;;221976;1253;24246;-46
2023/07/24 07:59:53;;;;;;;6.20;5.50;;;25.80;52.40;;;;;;221836;1264;22537;-48
2023/07/24 08:04:58;;;;;;;6.00;5.50;;;25.90;52.40;;;;;;222207;1264;24377;-47
2023/07/24 08:10:14;;;;;;;5.50;5.00;;;25.90;52.20;;;;;;222021;1269;23913;-47
2023/07/24 08:15:19;;;;;;;5.60;5.10;;;25.90;52.10;;;;;;222136;1255;22535;-48
2023/07/24 08:20:24;;;;;;;5.80;5.30;;;25.90;52.30;;;;;;222108;1266;22605;-47
2023/07/24 08:25:28;;;;;;;5.90;4.60;;;25.90;52.10;;;;;;222095;1266;22528;-47
2023/07/24 08:30:34;;;;;;;26.00;5.80;;;26.00;52.40;;;;;;222029;1261;22558;-45
2023/07/24 08:35:38;;;;;;;6.40;4.40;;;26.00;52.50;;;;;;222082;1261;25633;-46
2023/07/24 08:40:42;;;;;;;8.20;4.80;;;25.90;52.00;;;;;;221763;1267;22538;-46
2023/07/24 08:45:47;;;;;;;5.90;4.70;;;26.00;51.60;;;;;;221747;1264;25244;-46
2023/07/24 08:50:52;;;;;;;5.60;4.40;;;26.00;51.40;;;;;;222258;1269;22775;-50
2023/07/24 08:55:59;;;;;;;4.70;4.30;;;26.10;51.00;;;;;;222306;1267;23075;-48
2023/07/24 09:01:04;;;;;;;5.40;4.90;;;26.10;50.90;;;;;;222304;1267;22511;-46
2023/07/24 09:06:08;;;;;;;7.50;4.60;;;26.10;51.10;;;;;;222091;1256;24089;-49
2023/07/24 09:11:14;;;;;;;4.80;3.90;;;26.10;51.30;;;;;;222504;1257;22564;-47
2023/07/24 09:16:26;;;;;;;4.90;4.40;;;26.20;50.90;;;;;;222279;1266;22627;-47
2023/07/24 09:21:32;;;;;;;5.30;4.30;;;26.20;51.40;;;;;;222228;1263;23890;-46
2023/07/24 09:26:54;;;;;;;4.80;4.20;;;26.20;51.10;;;;;;222043;1257;23046;-48
2023/07/24 09:32:01;;;;;;;5.10;4.40;;;26.30;51.20;;;;;;222234;1269;22542;-47
2023/07/24 09:37:05;;;;;;;4.90;4.20;;;26.30;51.10;;;;;;222169;1264;22792;-46
2023/07/24 09:42:10;;;;;;;6.10;4.70;;;26.40;51.20;;;;;;222158;1269;22900;-45
2023/07/24 09:47:14;;;;;;;4.80;4.40;;;26.40;51.20;;;;;;221949;1264;24285;-44
2023/07/24 09:52:21;;;;;;;4.50;4.20;;;26.30;51.30;;;;;;222096;1260;22518;-46
2023/07/24 09:57:27;;;;;;;4.60;4.30;;;26.30;51.20;;;;;;222134;1263;22598;-49
2023/07/24 10:02:32;;;;;;;4.40;4.00;;;26.40;51.20;;;;;;221895;1254;22514;-47
2023/07/24 10:07:37;;;;;;;4.00;3.70;;;26.40;51.30;;;;;;222032;1266;22837;-47
2023/07/24 10:12:41;;;;;;;4.00;3.60;;;26.40;51.10;;;;;;222146;1269;24234;-48
2023/07/24 10:17:45;;;;;;;4.30;4.00;;;26.50;50.90;;;;;;222111;1259;22637;-46
2023/07/24 10:22:49;;;;;;;4.70;4.30;;;26.60;51.10;;;;;;221722;1269;22516;-46
2023/07/24 10:27:54;;;;;;;4.20;3.90;;;26.50;50.70;;;;;;221801;1263;24344;-46
2023/07/24 10:33:05;;;;;;;4.60;4.20;;;26.60;51.40;;;;;;222036;1266;22508;-46
2023/07/24 10:38:12;;;;;;;4.30;3.90;;;26.60;50.90;;;;;;222055;1264;23266;-45
2023/07/24 10:43:23;;;;;;;3.90;3.60;;;26.70;50.70;;;;;;222220;1269;22654;-46
2023/07/24 10:48:27;;;;;;;4.30;4.00;;;26.70;50.70;;;;;;222098;1256;24337;-46
2023/07/24 10:53:31;;;;;;;4.50;4.10;;;26.70;50.70;;;;;;222029;1263;24333;-47
2023/07/24 10:58:35;;;;;;;4.20;3.80;;;26.70;50.70;;;;;;222110;1247;22591;-47
2023/07/24 11:03:43;;;;;;;4.60;4.20;;;26.70;50.70;;;;;;222184;1266;22537;-46
2023/07/24 11:08:58;;;;;;;4.50;4.10;;;26.60;51.10;;;;;;222104;1269;23240;-47
2023/07/24 11:14:04;;;;;;;4.80;4.30;;;26.60;50.90;;;;;;222211;1269;23499;-46
2023/07/24 11:19:08;;;;;;;4.70;4.30;;;26.70;50.90;;;;;;222186;1260;24545;-47
2023/07/24 11:24:12;;;;;;;4.50;4.10;;;26.80;50.80;;;;;;222067;1267;22717;-47
2023/07/24 11:29:16;;;;;;;4.40;4.00;;;26.90;50.80;;;;;;222051;1269;22511;-45
2023/07/24 11:34:21;;;;;;;4.30;3.90;;;27.00;50.60;;;;;;221797;1254;22710;-45
2023/07/24 11:39:25;;;;;;;4.10;3.70;;;27.00;50.60;;;;;;222046;1269;22640;-49
2023/07/24 11:44:29;;;;;;;4.40;4.10;;;27.00;50.20;;;;;;222258;1266;22542;-47
2023/07/24 11:49:33;;;;;;;4.00;3.70;;;26.90;50.60;;;;;;222017;1254;25065;-46
2023/07/24 11:54:37;;;;;;;4.80;4.40;;;26.90;50.70;;;;;;221933;1269;22584;-46
2023/07/24 11:59:42;;;;;;;3.90;3.60;;;26.90;50.80;;;;;;222131;1254;24323;-48
2023/07/24 12:04:46;;;;;;;4.70;4.30;;;27.00;50.70;;;;;;221841;1266;24010;-49
2023/07/24 12:09:52;;;;;;;4.70;4.30;;;27.00;50.60;;;;;;222198;1257;24237;-46
2023/07/24 12:14:56;;;;;;;4.20;3.80;;;27.00;50.50;;;;;;222237;1267;22517;-49
2023/07/24 12:20:00;;;;;;;4.50;4.20;;;27.00;51.00;;;;;;221914;1269;22660;-48
2023/07/24 12:25:05;;;;;;;5.10;4.70;;;27.00;51.00;;;;;;222002;1264;22630;-48
2023/07/24 12:30:10;;;;;;;4.70;4.30;;;27.20;50.60;;;;;;221998;1263;22632;-46
2023/07/24 12:35:16;;;;;;;4.70;4.40;;;27.10;50.40;;;;;;222123;1264;26231;-46
2023/07/24 12:40:20;;;;;;;4.70;4.30;;;27.00;50.60;;;;;;222073;1264;22525;-47
2023/07/24 12:45:24;;;;;;;5.60;4.40;;;26.90;51.10;;;;;;220692;1270;24175;-45
2023/07/24 12:50:30;;;;;;;4.50;4.10;;;27.00;50.70;;;;;;220527;1271;22844;-48
2023/07/24 12:55:34;;;;;;;5.30;4.90;;;27.10;50.60;;;;;;220585;1269;25715;-47
2023/07/24 13:00:39;;;;;;;5.60;5.10;;;27.00;50.70;;;;;;220957;1269;22637;-47
2023/07/24 13:05:43;;;;;;;4.80;4.40;;;27.10;50.80;;;;;;221846;1256;24190;-48
2023/07/24 13:10:47;;;;;;;5.00;4.60;;;27.00;51.10;;;;;;221851;1259;25330;-48
2023/07/24 13:15:51;;;;;;;5.70;5.00;;;26.90;51.20;;;;;;221954;1263;22484;-47
2023/07/24 13:20:56;;;;;;;5.00;4.60;;;27.00;51.00;;;;;;222142;1264;22527;-46
2023/07/24 13:26:00;;;;;;;6.10;5.50;;;27.10;51.10;;;;;;221834;1269;22524;-49
2023/07/24 13:31:13;;;;;;;6.20;5.70;;;27.00;50.90;;;;;;221798;1263;22604;-48
2023/07/24 13:36:18;;;;;;;5.30;4.70;;;27.10;50.90;;;;;;221669;1263;25522;-48
2023/07/24 13:41:22;;;;;;;5.60;5.10;;;27.00;51.00;;;;;;222038;1250;24298;-49
2023/07/24 13:46:27;;;;;;;5.50;5.00;;;27.10;50.90;;;;;;221974;1264;23396;-48
2023/07/24 13:51:31;;;;;;;6.30;5.80;;;27.10;51.30;;;;;;222036;1253;22521;-47
2023/07/24 13:56:36;;;;;;;7.70;6.60;;;27.10;51.50;;;;;;222147;1266;22535;-47
2023/07/24 14:01:40;;;;;;;5.90;5.30;;;27.20;50.00;;;;;;222191;1263;22898;-50
2023/07/24 14:06:45;;;;;;;5.90;5.40;;;27.20;50.90;;;;;;222091;1257;25332;-49
2023/07/24 14:11:50;;;;;;;5.30;4.90;;;27.20;50.50;;;;;;222141;1256;25344;-47
2023/07/24 14:16:54;;;;;;;7.30;6.60;;;27.10;50.70;;;;;;221936;1255;212534;-49
2023/07/24 14:21:59;;;;;;;8.40;6.40;;;27.20;50.60;;;;;;222182;1263;22532;-47
2023/07/24 14:27:03;;;;;;;7.30;5.80;;;27.40;51.50;;;;;;221971;1263;22509;-48
2023/07/24 14:32:08;;;;;;;8.40;7.50;;;27.40;51.60;;;;;;221936;1249;22511;-48
2023/07/24 14:37:13;;;;;;;10.20;7.50;;;27.30;51.50;;;;;;222092;1256;24589;-46
2023/07/24 14:42:18;;;;;;;13.80;7.80;;;27.30;51.10;;;;;;222078;1256;22520;-46
2023/07/24 14:47:22;;;;;;;11.00;7.80;;;27.30;51.50;;;;;;222306;1262;24253;-50
2023/07/24 14:52:27;;;;;;;8.70;6.70;;;27.30;51.70;;;;;;222056;1263;26705;-47
2023/07/24 14:57:32;;;;;;;7.70;7.00;;;27.30;51.50;;;;;;222314;1256;22509;-48
2023/07/24 15:02:37;;;;;;;8.30;7.20;;;27.40;52.10;;;;;;221818;1265;22517;-50
2023/07/24 15:07:41;;;;;;;10.80;8.30;;;27.30;52.00;;;;;;222515;1262;22507;-50
2023/07/24 15:12:46;;;;;;;7.70;6.90;;;27.40;52.30;;;;;;221862;1259;22535;-48
2023/07/24 15:17:51;;;;;;;9.00;6.80;;;27.40;51.90;;;;;;222207;1263;24141;-48
2023/07/24 15:22:56;;;;;;;8.10;7.20;;;27.30;51.80;;;;;;221955;1269;24045;-48
2023/07/24 15:28:00;;;;;;;8.20;7.40;;;27.30;51.80;;;;;;222412;1269;26663;-47
2023/07/24 15:33:05;;;;;;;8.20;6.50;;;27.30;51.20;;;;;;222086;1256;22513;-46
2023/07/24 15:38:10;;;;;;;8.00;7.20;;;27.20;52.10;;;;;;222287;1269;24173;-48
2023/07/24 15:43:14;;;;;;;8.40;7.50;;;27.20;51.80;;;;;;222432;1267;24515;-47
2023/07/24 15:48:19;;;;;;;8.50;7.60;;;27.10;51.90;;;;;;222216;1257;22482;-47
2023/07/24 15:53:31;;;;;;;9.70;7.40;;;27.10;52.40;;;;;;222028;1254;22517;-47
2023/07/24 15:58:37;;;;;;;7.80;7.00;;;27.10;51.90;;;;;;222347;1269;22674;-49
2023/07/24 16:03:43;;;;;;;8.20;7.40;;;27.00;52.20;;;;;;221886;1269;22537;-48
2023/07/24 16:08:47;;;;;;;8.60;7.60;;;27.00;51.80;;;;;;222419;1266;22525;-45
2023/07/24 16:13:52;;;;;;;8.30;7.40;;;27.00;51.80;;;;;;222082;1265;22516;-49
2023/07/24 16:19:13;;;;;;;8.00;7.20;;;27.00;51.70;;;;;;221774;1267;22511;-47
2023/07/24 16:24:18;;;;;;;8.50;7.60;;;27.00;51.70;;;;;;222068;1266;22504;-46
2023/07/24 16:29:22;;;;;;;7.90;7.00;;;27.00;51.90;;;;;;222468;1253;23149;-47
2023/07/24 16:34:26;;;;;;;6.90;6.20;;;27.00;51.80;;;;;;221954;1263;22511;-50
2023/07/24 16:39:32;;;;;;;7.80;6.90;;;27.10;51.70;;;;;;221993;1269;25335;-48
2023/07/24 16:44:36;;;;;;;8.10;7.00;;;27.00;51.80;;;;;;222226;1269;25309;-48
2023/07/24 16:49:40;;;;;;;8.20;7.10;;;27.00;51.80;;;;;;222170;1255;24365;-48
2023/07/24 16:54:46;;;;;;;7.70;6.90;;;27.10;51.80;;;;;;222255;1266;22629;-47
2023/07/24 16:59:50;;;;;;;8.10;7.40;;;27.00;52.20;;;;;;222370;1257;24334;-47
2023/07/24 17:04:55;;;;;;;7.00;6.30;;;27.10;51.80;;;;;;222084;1259;22774;-49
2023/07/24 17:09:59;;;;;;;7.70;7.00;;;27.00;51.80;;;;;;222076;1263;25448;-48
2023/07/24 17:15:05;;;;;;;7.40;6.70;;;27.00;52.00;;;;;;222265;1255;22625;-47
2023/07/24 17:20:16;;;;;;;8.00;7.30;;;27.00;52.10;;;;;;222229;1269;25405;-47
2023/07/24 17:25:20;;;;;;;8.60;7.80;;;27.00;52.10;;;;;;222252;1267;22644;-50
2023/07/24 17:30:27;;;;;;;9.30;7.80;;;27.00;52.10;;;;;;222238;1266;22551;-47
2023/07/24 17:35:33;;;;;;;7.40;6.70;;;27.00;51.90;;;;;;222229;1266;22763;-50
2023/07/24 17:40:38;;;;;;;9.40;7.90;;;27.00;51.90;;;;;;222036;1269;22788;-47
2023/07/24 17:45:43;;;;;;;8.10;7.20;;;27.00;51.90;;;;;;222025;1263;22532;-48
2023/07/24 17:50:48;;;;;;;8.20;7.40;;;27.00;51.30;;;;;;222171;1264;24189;-46
2023/07/24 17:55:53;;;;;;;8.70;7.70;;;27.00;51.90;;;;;;222215;1269;22524;-47
2023/07/24 18:00:59;;;;;;;7.40;6.80;;;27.00;52.30;;;;;;222012;1253;22619;-46
2023/07/24 18:06:04;;;;;;;8.50;7.60;;;27.00;52.30;;;;;;222101;1264;26004;-49
2023/07/24 18:11:08;;;;;;;8.50;7.70;;;27.00;52.40;;;;;;222104;1266;22514;-50
2023/07/24 18:16:15;;;;;;;8.70;7.90;;;26.90;52.10;;;;;;222069;1265;25383;-48
2023/07/24 18:21:21;;;;;;;8.50;7.60;;;27.00;52.00;;;;;;222115;1266;23941;-50
2023/07/24 18:26:25;;;;;;;8.00;7.30;;;27.00;52.30;;;;;;222241;1262;24206;-51
2023/07/24 18:31:31;;;;;;;8.40;7.60;;;26.90;52.30;;;;;;222234;1265;25269;-50
2023/07/24 18:36:37;;;;;;;8.70;7.90;;;26.90;52.40;;;;;;222014;1263;22531;-49
2023/07/24 18:41:41;;;;;;;9.00;8.20;;;26.90;52.50;;;;;;222175;1264;23697;-46
2023/07/24 18:46:50;;;;;;;9.60;7.40;;;26.90;52.30;;;;;;221851;1263;24305;-46
2023/07/24 18:51:55;;;;;;;8.40;7.70;;;26.90;52.50;;;;;;222102;1265;24197;-50
2023/07/24 18:57:00;;;;;;;8.50;7.80;;;26.90;52.30;;;;;;222157;1260;24394;-47
2023/07/24 19:02:06;;;;;;;8.60;7.80;;;27.00;52.30;;;;;;222089;1269;24234;-47
2023/07/24 19:07:11;;;;;;;9.00;8.20;;;26.90;52.20;;;;;;222179;1259;24205;-51
2023/07/24 19:12:18;;;;;;;8.70;7.80;;;26.90;52.20;;;;;;222471;1266;24243;-47
2023/07/24 19:17:26;;;;;;;8.80;7.80;;;26.90;52.30;;;;;;222111;1265;23937;-48
2023/07/24 19:22:32;;;;;;;8.70;8.00;;;26.90;52.40;;;;;;222291;1263;25347;-48
2023/07/24 19:27:39;;;;;;;9.60;8.60;;;26.80;52.40;;;;;;222155;1268;24220;-48
2023/07/24 19:32:44;;;;;;;9.20;8.20;;;26.80;52.60;;;;;;222400;1266;22592;-47
2023/07/24 19:37:49;;;;;;;8.40;7.70;;;26.80;53.00;;;;;;221912;1269;22541;-47
2023/07/24 19:42:56;;;;;;;7.90;7.20;;;26.80;53.00;;;;;;221853;1263;24648;-47
2023/07/24 19:48:00;;;;;;;9.90;8.40;;;26.70;52.60;;;;;;221864;1267;22538;-47
2023/07/24 19:53:05;;;;;;;9.40;8.40;;;26.80;52.80;;;;;;221893;1269;25936;-48
2023/07/24 19:58:11;;;;;;;8.80;7.90;;;26.80;52.90;;;;;;221989;1266;24185;-47
2023/07/24 20:03:39;;;;;;;8.60;7.80;;;26.80;53.10;;;;;;222300;1269;24212;-49
2023/07/24 20:08:44;;;;;;;8.90;8.20;;;26.80;52.90;;;;;;221831;1267;22646;-47
2023/07/24 20:13:50;;;;;;;9.20;8.30;;;26.80;53.00;;;;;;222215;1263;22514;-46
2023/07/24 20:18:55;;;;;;;9.20;8.30;;;26.80;53.70;;;;;;221820;1261;25025;-47
2023/07/24 20:24:09;;;;;;;11.20;7.90;;;26.70;53.40;;;;;;222275;1266;24364;-49
2023/07/24 20:29:14;;;;;;;9.50;8.30;;;26.70;53.60;;;;;;222314;1263;22635;-48
2023/07/24 20:34:19;;;;;;;9.00;8.00;;;26.70;53.70;;;;;;221970;1269;25220;-47
2023/07/24 20:39:23;;;;;;;9.60;8.70;;;26.70;53.90;;;;;;222227;1263;22517;-47
2023/07/24 20:44:31;;;;;;;9.50;8.60;;;26.70;53.90;;;;;;221840;1266;24358;-48
2023/07/24 20:49:36;;;;;;;14.30;8.80;;;26.70;54.10;;;;;;222130;1256;24206;-49
2023/07/24 20:54:42;;;;;;;9.60;8.60;;;26.70;54.20;;;;;;222352;1266;22515;-47
2023/07/24 20:59:47;;;;;;;9.00;8.10;;;26.70;55.00;;;;;;222006;1269;22515;-46
2023/07/24 21:04:54;;;;;;;8.80;8.10;;;26.60;54.50;;;;;;221932;1263;22537;-48
2023/07/24 21:09:59;;;;;;;10.70;7.80;;;26.60;54.50;;;;;;221910;1266;23129;-48
2023/07/24 21:15:04;;;;;;;8.60;7.70;;;26.60;54.40;;;;;;222076;1268;24218;-48
2023/07/24 21:20:08;;;;;;;8.20;7.40;;;26.60;54.20;;;;;;222117;1255;22560;-47
2023/07/24 21:25:12;;;;;;;10.00;8.50;;;26.60;54.00;;;;;;222047;1265;22510;-47
2023/07/24 21:30:18;;;;;;;9.00;7.70;;;26.60;54.20;;;;;;222040;1269;25405;-47
2023/07/24 21:35:22;;;;;;;8.50;7.70;;;26.50;53.60;;;;;;222019;1264;24341;-47
2023/07/24 21:40:26;;;;;;;8.40;7.60;;;26.60;53.40;;;;;;222181;1268;24381;-46
2023/07/24 21:45:30;;;;;;;9.40;8.40;;;26.60;53.30;;;;;;221894;1267;22512;-48
2023/07/24 21:50:34;;;;;;;7.90;7.20;;;26.60;53.20;;;;;;222035;1269;22538;-47
2023/07/24 21:55:39;;;;;;;7.60;6.90;;;26.60;53.10;;;;;;221808;1269;22591;-47
2023/07/24 22:00:43;;;;;;;8.50;7.00;;;26.60;53.00;;;;;;222114;1269;22528;-46
2023/07/24 22:05:47;;;;;;;9.10;7.20;;;26.50;53.30;;;;;;222232;1264;24747;-48
2023/07/24 22:10:51;;;;;;;8.00;7.30;;;26.60;53.10;;;;;;221956;1265;22514;-47
2023/07/24 22:15:56;;;;;;;8.50;7.70;;;26.50;53.20;;;;;;222044;1264;23924;-47
2023/07/24 22:21:00;;;;;;;6.70;6.20;;;26.50;52.80;;;;;;222244;1266;22548;-48
2023/07/24 22:26:04;;;;;;;7.40;6.70;;;26.50;52.70;;;;;;222158;1269;22508;-49
2023/07/24 22:31:10;;;;;;;7.40;6.60;;;26.50;52.80;;;;;;222095;1266;22987;-50
2023/07/24 22:36:14;;;;;;;8.20;6.60;;;26.50;53.10;;;;;;221916;1269;22525;-47
2023/07/24 22:41:18;;;;;;;7.30;6.60;;;26.50;52.30;;;;;;221900;1269;22511;-46
2023/07/24 22:46:22;;;;;;;7.20;6.60;;;26.50;52.70;;;;;;221969;1269;22517;-47
2023/07/24 22:51:27;;;;;;;7.30;6.40;;;26.50;53.10;;;;;;222307;1269;25320;-48
2023/07/24 22:56:31;;;;;;;6.60;6.00;;;26.50;52.70;;;;;;222247;1269;22518;-46
2023/07/24 23:01:37;;;;;;;6.70;5.90;;;26.50;52.60;;;;;;222215;1269;26656;-48
2023/07/24 23:06:41;;;;;;;6.70;6.00;;;26.50;52.70;;;;;;222167;1268;25585;-49
2023/07/24 23:11:45;;;;;;;9.10;6.40;;;26.50;52.70;;;;;;222065;1263;24244;-47
2023/07/24 23:16:50;;;;;;;6.80;6.10;;;26.40;52.70;;;;;;222202;1269;23893;-50
2023/07/24 23:21:54;;;;;;;6.70;6.00;;;26.40;52.60;;;;;;222035;1269;22535;-47
2023/07/24 23:26:58;;;;;;;5.60;5.10;;;26.40;52.60;;;;;;222092;1262;22508;-45
2023/07/24 23:32:03;;;;;;;6.90;6.00;;;26.40;52.60;;;;;;222281;1264;22514;-46
2023/07/24 23:37:07;;;;;;;7.20;5.50;;;26.40;53.00;;;;;;222113;1269;24170;-48
2023/07/24 23:42:11;;;;;;;5.90;5.40;;;26.40;52.70;;;;;;221935;1269;22511;-46
2023/07/24 23:47:16;;;;;;;6.70;6.20;;;26.40;53.10;;;;;;222220;1260;22527;-47
2023/07/24 23:52:20;;;;;;;6.80;6.10;;;26.40;53.10;;;;;;222310;1266;22509;-49
2023/07/24 23:57:31;;;;;;;6.00;5.40;;;26.40;52.70;;;;;;222052;1266;22569;-48
